McNair Village, Texas
Current Conditions -  °F | °C
As of 2:56 AM on Thursday 23 Oct 2014 (Local Time) from KHLR Reporting Station
Clear Clear  
Wind Chill: 69°   Ceiling: Unl
Heat Index: 69°   Visibility: 10mi
Dew Point: 58°   Wind: 3mph
Humidity: 68%   Direction: 110°ESE
Pressure: 30.1"   Gusts: NA
Location:  31.2151°N, 97.7405°W
Report Text: KHLR 230756Z 11003KT 10SM CLR 21/14 A3010 RMK AO2 SLPNO T02060144 $
Loading
Personal Weather Stations






























Interactive Weather Map New forecast layout! Learn more

10-Day Weather Forecast

Advertisements
Track Severe Weather on mobile